createdAt,value
2023-03-03T02:03:56.740Z,99.90
2023-03-03T02:06:28.311Z,99.90
2023-03-03T02:09:05.941Z,99.90
2023-03-03T02:11:36.426Z,99.90
2023-03-03T02:14:03.596Z,99.90
2023-03-03T02:16:30.727Z,99.90
2023-03-03T02:18:57.811Z,99.90
2023-03-03T02:21:28.919Z,99.90
2023-03-03T02:24:21.729Z,99.90
2023-03-03T02:26:49.060Z,99.90
2023-03-03T02:29:15.903Z,99.90
2023-03-03T02:31:44.052Z,99.90
2023-03-03T02:34:11.368Z,99.90
2023-03-03T02:36:39.801Z,99.90
2023-03-03T02:39:18.354Z,99.90
2023-03-03T02:41:45.089Z,99.90
2023-03-03T02:44:14.516Z,99.90
2023-03-03T02:46:43.851Z,99.90
2023-03-03T02:49:13.226Z,99.90
2023-03-03T02:51:40.678Z,99.90
2023-03-03T02:54:08.753Z,99.90
2023-03-03T02:56:35.827Z,99.90
2023-03-03T02:59:03.740Z,99.90
2023-03-03T03:01:32.340Z,99.90
2023-03-03T03:03:59.562Z,99.90
2023-03-03T03:06:26.368Z,99.90
2023-03-03T03:08:53.387Z,99.90
2023-03-03T03:11:20.179Z,99.90
2023-03-03T03:13:46.974Z,99.90
2023-03-03T03:16:13.834Z,99.90
2023-03-03T03:18:40.730Z,99.90
2023-03-03T03:21:12.418Z,99.90
2023-03-03T03:23:40.313Z,99.90
2023-03-03T03:26:07.385Z,99.90
2023-03-03T03:28:35.200Z,99.90
2023-03-03T03:31:02.832Z,99.90
2023-03-03T03:33:29.717Z,99.90
2023-03-03T03:35:58.038Z,99.90
2023-03-03T03:38:27.230Z,99.90
2023-03-03T03:40:54.799Z,99.90
2023-03-03T03:43:22.342Z,99.90
2023-03-03T03:45:49.327Z,99.90
2023-03-03T03:48:16.880Z,99.90
2023-03-03T03:50:43.685Z,99.90
2023-03-03T03:53:10.521Z,99.90
2023-03-03T03:55:37.346Z,99.90
2023-03-03T03:58:04.165Z,99.90
2023-03-03T04:00:31.469Z,99.90
2023-03-03T04:02:58.789Z,99.90
2023-03-03T04:05:25.719Z,99.90
2023-03-03T04:07:52.583Z,99.90
2023-03-03T04:10:19.483Z,99.90
2023-03-03T04:12:46.268Z,99.90
2023-03-03T04:15:15.315Z,99.90
2023-03-03T04:17:42.943Z,99.90
2023-03-03T04:20:13.562Z,99.90
2023-03-03T04:22:40.420Z,99.90
2023-03-03T04:25:08.364Z,99.90
2023-03-03T04:27:36.612Z,99.90
2023-03-03T04:30:05.346Z,99.90
2023-03-03T04:32:33.952Z,99.90
2023-03-03T04:35:07.735Z,99.90
2023-03-03T04:37:36.561Z,99.90
2023-03-03T04:40:08.732Z,99.90
2023-03-03T04:42:35.837Z,99.90
2023-03-03T04:45:03.930Z,99.90
2023-03-03T04:47:32.463Z,99.90
2023-03-03T04:49:59.365Z,99.90
2023-03-03T04:52:26.469Z,98.70
2023-03-03T04:54:53.308Z,97.20
2023-03-03T04:57:20.105Z,97.00
2023-03-03T04:59:46.955Z,96.80
2023-03-03T05:02:14.712Z,97.60
2023-03-03T05:04:41.614Z,99.10
2023-03-03T05:07:08.937Z,99.90
2023-03-03T05:09:36.034Z,99.90
2023-03-03T05:12:03.065Z,99.90
2023-03-03T05:14:29.933Z,99.90
2023-03-03T05:16:56.729Z,96.20
2023-03-03T05:19:24.211Z,94.90
2023-03-03T05:21:51.016Z,96.20
2023-03-03T05:24:18.247Z,97.00
2023-03-03T05:26:45.043Z,96.80
2023-03-03T05:29:11.910Z,94.00
2023-03-03T05:31:38.693Z,93.70
2023-03-03T05:34:05.635Z,95.50
2023-03-03T05:36:32.530Z,96.90
2023-03-03T05:39:00.835Z,98.30
2023-03-03T05:41:27.726Z,93.50
2023-03-03T05:43:54.696Z,90.50
2023-03-03T05:46:21.514Z,91.30
2023-03-03T05:48:48.444Z,92.90
2023-03-03T05:51:15.466Z,93.90
2023-03-03T05:53:42.481Z,91.80
2023-03-03T05:56:09.321Z,90.30
2023-03-03T05:58:36.217Z,85.10
2023-03-03T06:01:03.352Z,87.20
2023-03-03T06:03:30.185Z,85.80
2023-03-03T06:05:57.015Z,86.30
2023-03-03T06:08:23.893Z,88.90
2023-03-03T06:10:50.705Z,92.90
2023-03-03T06:13:17.581Z,96.10
2023-03-03T06:15:44.528Z,97.30
2023-03-03T06:18:11.588Z,92.70
2023-03-03T06:20:38.914Z,91.40
2023-03-03T06:23:06.132Z,91.50
2023-03-03T06:25:35.720Z,92.20
2023-03-03T06:28:03.904Z,96.10
2023-03-03T06:30:30.777Z,99.90
2023-03-03T06:32:57.697Z,99.90
2023-03-03T06:35:24.687Z,99.90
2023-03-03T06:37:51.859Z,96.60
2023-03-03T06:40:18.924Z,93.10
2023-03-03T06:42:46.060Z,92.70
2023-03-03T06:45:13.606Z,89.50
2023-03-03T06:47:40.713Z,91.30
2023-03-03T06:50:10.078Z,93.60
2023-03-03T06:52:36.872Z,95.40
2023-03-03T06:55:18.503Z,95.40
2023-03-03T06:57:45.274Z,97.90
2023-03-03T07:00:20.429Z,97.80
2023-03-03T07:02:57.843Z,97.20
2023-03-03T07:05:26.560Z,96.40
2023-03-03T07:07:54.546Z,93.20
2023-03-03T07:10:30.257Z,87.30
2023-03-03T07:13:12.032Z,85.50
2023-03-03T07:15:39.084Z,84.10
2023-03-03T07:18:21.595Z,83.20
2023-03-03T07:20:48.704Z,90.90
2023-03-03T07:23:23.833Z,96.80
2023-03-03T07:25:52.172Z,95.80
2023-03-03T07:28:29.319Z,91.20
2023-03-03T07:30:58.182Z,86.60
2023-03-03T07:33:31.867Z,79.10
2023-03-03T07:35:59.895Z,76.30
2023-03-03T07:38:40.798Z,72.30
2023-03-03T07:41:26.165Z,70.40
2023-03-03T07:43:55.837Z,70.10
2023-03-03T07:46:43.665Z,68.60
2023-03-03T07:49:37.844Z,64.90
2023-03-03T07:52:29.644Z,66.50
2023-03-03T07:54:58.510Z,65.40
2023-03-03T07:57:36.915Z,69.10
2023-03-03T08:00:18.440Z,65.10
2023-03-03T08:03:06.175Z,64.50
2023-03-03T08:05:38.922Z,64.20
2023-03-03T08:08:29.430Z,72.90
2023-03-03T08:11:01.766Z,64.70
2023-03-03T08:13:29.765Z,69.10
2023-03-03T08:16:08.118Z,88.10
2023-03-03T08:18:37.667Z,78.30
2023-03-03T08:21:24.655Z,86.90
2023-03-03T08:23:53.515Z,78.50
2023-03-03T08:26:21.938Z,77.50
2023-03-03T08:28:48.800Z,76.20
2023-03-03T08:31:30.847Z,82.90
2023-03-03T08:34:04.604Z,79.10
2023-03-03T08:36:33.619Z,73.10
2023-03-03T08:39:01.577Z,69.30
2023-03-03T08:41:28.621Z,61.60
2023-03-03T08:43:55.456Z,62.30
2023-03-03T08:46:22.308Z,59.70
2023-03-03T08:48:49.764Z,55.10
2023-03-03T08:51:16.630Z,57.20
2023-03-03T08:53:43.327Z,65.50
2023-03-03T08:56:10.546Z,68.10
2023-03-03T08:58:37.333Z,69.70
2023-03-03T09:01:04.250Z,67.30
2023-03-03T09:03:31.040Z,69.70
2023-03-03T09:05:57.820Z,71.60
2023-03-03T09:08:24.547Z,68.20
2023-03-03T09:10:51.393Z,68.20
2023-03-03T09:13:19.414Z,63.90
2023-03-03T09:15:46.656Z,65.70
2023-03-03T09:18:25.971Z,66.50
2023-03-03T09:20:54.534Z,66.10
2023-03-03T09:23:41.728Z,63.70
2023-03-03T09:26:28.385Z,63.10
2023-03-03T09:29:01.106Z,63.60
2023-03-03T09:31:36.598Z,62.30
2023-03-03T09:34:10.858Z,64.00
2023-03-03T09:36:38.768Z,62.90
2023-03-03T09:39:27.013Z,58.90
2023-03-03T09:42:28.572Z,59.00
2023-03-03T09:45:24.336Z,57.60
2023-03-03T09:47:59.674Z,58.10
2023-03-03T09:50:32.998Z,56.70
2023-03-03T09:53:13.157Z,57.10
2023-03-03T09:55:58.602Z,57.80
2023-03-03T09:59:02.865Z,58.10
2023-03-03T10:01:38.774Z,59.60
2023-03-03T10:04:42.909Z,59.40
2023-03-03T10:07:18.347Z,59.50
2023-03-03T10:10:15.887Z,58.40
2023-03-03T10:13:04.091Z,57.50
2023-03-03T10:15:49.438Z,58.70
2023-03-03T10:18:32.267Z,60.00
2023-03-03T10:21:08.693Z,58.10
2023-03-03T10:23:52.005Z,58.70
2023-03-03T10:27:09.813Z,57.10
2023-03-03T10:30:03.254Z,56.10
2023-03-03T10:33:02.228Z,57.50
2023-03-03T10:36:05.985Z,59.40
2023-03-03T10:38:36.503Z,59.50
2023-03-03T10:41:20.327Z,58.80
2023-03-03T10:44:22.134Z,56.50
2023-03-03T10:46:54.654Z,58.60
2023-03-03T10:49:48.530Z,57.60
2023-03-03T10:52:26.813Z,58.10
2023-03-03T10:55:19.104Z,57.20
2023-03-03T10:58:16.846Z,56.60
2023-03-03T11:01:29.774Z,55.40
2023-03-03T11:04:33.747Z,56.40
2023-03-03T11:07:24.729Z,53.10
2023-03-03T11:10:06.090Z,53.70
2023-03-03T11:13:09.137Z,53.70
2023-03-03T11:15:44.888Z,55.20
2023-03-03T11:18:16.016Z,54.70
2023-03-03T11:20:52.161Z,51.80
2023-03-03T11:23:45.423Z,52.70
2023-03-03T11:26:48.454Z,54.80
2023-03-03T11:29:43.061Z,54.00
2023-03-03T11:32:34.940Z,51.20
2023-03-03T11:35:23.475Z,52.30
2023-03-03T11:38:14.235Z,53.20
2023-03-03T11:41:10.429Z,51.40
2023-03-03T11:43:53.109Z,51.10
2023-03-03T11:46:27.281Z,50.60
2023-03-03T11:48:58.579Z,52.20
2023-03-03T11:51:51.627Z,51.50
2023-03-03T11:54:38.377Z,50.60
2023-03-03T11:57:21.434Z,52.80
2023-03-03T12:00:16.939Z,50.30
2023-03-03T12:03:11.390Z,50.80
2023-03-03T12:05:58.591Z,51.40
2023-03-03T12:08:37.134Z,51.60
2023-03-03T12:11:08.294Z,50.70
2023-03-03T12:14:07.959Z,53.30
2023-03-03T12:17:01.389Z,52.30
2023-03-03T12:19:44.506Z,50.30
2023-03-03T12:22:45.864Z,52.10
2023-03-03T12:25:18.957Z,50.50
2023-03-03T12:28:05.673Z,51.20
2023-03-03T12:30:49.367Z,49.80
2023-03-03T12:33:25.933Z,49.00
2023-03-03T12:36:02.820Z,49.10
2023-03-03T12:38:29.693Z,48.30
2023-03-03T12:41:09.372Z,46.30
2023-03-03T12:43:55.925Z,47.40
2023-03-03T12:46:43.662Z,48.80
2023-03-03T12:49:10.561Z,48.80
2023-03-03T12:52:06.469Z,50.70
2023-03-03T12:54:48.058Z,50.60
2023-03-03T12:57:58.193Z,48.80
2023-03-03T13:00:39.869Z,50.70
2023-03-03T13:03:32.228Z,48.40
2023-03-03T13:06:07.706Z,47.40
2023-03-03T13:08:37.159Z,49.80
2023-03-03T13:11:19.326Z,48.60
2023-03-03T13:14:23.387Z,48.90
2023-03-03T13:16:59.436Z,49.30
2023-03-03T13:19:46.670Z,47.40
2023-03-03T13:22:28.663Z,48.30
2023-03-03T13:25:07.018Z,47.50
2023-03-03T13:27:41.174Z,46.50
2023-03-03T13:30:19.157Z,46.50
2023-03-03T13:33:11.667Z,44.70
2023-03-03T13:35:44.852Z,45.80
2023-03-03T13:38:21.996Z,46.80
2023-03-03T13:41:04.237Z,46.60
2023-03-03T13:43:57.075Z,47.80
2023-03-03T13:46:44.022Z,47.20
2023-03-03T13:49:20.599Z,45.80
2023-03-03T13:52:15.968Z,47.40
2023-03-03T13:55:12.209Z,47.00
2023-03-03T13:58:00.075Z,45.50
2023-03-03T14:00:56.957Z,44.70
2023-03-03T14:04:01.936Z,44.00
2023-03-03T14:06:30.445Z,45.30
2023-03-03T14:09:22.545Z,45.70
2023-03-03T14:11:57.730Z,46.50
2023-03-03T14:14:27.711Z,46.50
2023-03-03T14:17:01.468Z,47.50
2023-03-03T14:19:43.398Z,46.10
2023-03-03T14:22:25.683Z,48.60
2023-03-03T14:25:08.473Z,46.00
2023-03-03T14:27:38.274Z,45.60
2023-03-03T14:30:41.090Z,47.10
2023-03-03T14:33:08.045Z,47.10
2023-03-03T14:36:11.396Z,47.70
2023-03-03T14:38:56.976Z,47.50
2023-03-03T14:41:38.628Z,47.80
2023-03-03T14:44:27.109Z,48.00
2023-03-03T14:47:24.155Z,48.10
2023-03-03T14:49:52.185Z,48.30
2023-03-03T14:52:22.601Z,48.20
2023-03-03T14:54:55.685Z,48.30
2023-03-03T14:57:48.938Z,48.50
2023-03-03T15:00:16.730Z,48.20
2023-03-03T15:02:58.829Z,48.50
2023-03-03T15:05:28.316Z,47.80
2023-03-03T15:08:04.141Z,48.60
2023-03-03T15:10:40.295Z,47.40
2023-03-03T15:13:22.294Z,45.30
2023-03-03T15:16:12.436Z,46.50
2023-03-03T15:19:31.036Z,47.40
2023-03-03T15:22:04.918Z,48.30
2023-03-03T15:24:43.447Z,48.10
2023-03-03T15:27:40.745Z,48.50
2023-03-03T15:30:35.872Z,48.50
2023-03-03T15:33:30.765Z,48.50
2023-03-03T15:36:11.659Z,49.00
2023-03-03T15:38:59.389Z,48.90
2023-03-03T15:41:28.501Z,48.90
2023-03-03T15:44:16.720Z,47.00
2023-03-03T15:47:25.862Z,47.20
2023-03-03T15:50:03.239Z,47.80
2023-03-03T15:52:38.704Z,49.00
2023-03-03T15:55:54.147Z,48.20
2023-03-03T15:58:40.990Z,48.60
2023-03-03T16:01:20.662Z,49.80
2023-03-03T16:03:54.699Z,49.10
2023-03-03T16:06:24.626Z,49.30
2023-03-03T16:09:17.975Z,48.40
2023-03-03T16:12:06.250Z,49.30
2023-03-03T16:14:40.556Z,49.10
2023-03-03T16:17:28.508Z,47.40
2023-03-03T16:20:16.855Z,46.60
2023-03-03T16:23:06.808Z,47.50
2023-03-03T16:25:33.610Z,47.70
2023-03-03T16:28:10.654Z,49.30
2023-03-03T16:30:43.671Z,49.80
2023-03-03T16:33:15.614Z,49.90
2023-03-03T16:36:00.507Z,50.60
2023-03-03T16:38:38.547Z,50.60
2023-03-03T16:41:16.608Z,50.40
2023-03-03T16:44:12.745Z,51.10
2023-03-03T16:46:43.555Z,50.80
2023-03-03T16:49:16.217Z,51.20
2023-03-03T16:51:52.936Z,51.90
2023-03-03T16:54:32.557Z,51.40
2023-03-03T16:57:20.830Z,50.40
2023-03-03T17:00:15.743Z,50.60
2023-03-03T17:02:45.385Z,50.70
2023-03-03T17:05:27.418Z,50.60
2023-03-03T17:08:29.753Z,51.00
2023-03-03T17:11:32.363Z,54.00
2023-03-03T17:14:40.846Z,54.00
2023-03-03T17:17:07.919Z,56.90
2023-03-03T17:20:20.997Z,57.60
2023-03-03T17:23:25.453Z,58.30
2023-03-03T17:25:58.456Z,59.20
2023-03-03T17:29:02.710Z,61.30
2023-03-03T17:31:37.160Z,63.00
2023-03-03T17:34:12.921Z,63.10
2023-03-03T17:36:58.100Z,62.70
2023-03-03T17:39:43.590Z,63.70
2023-03-03T17:42:19.086Z,68.60
2023-03-03T17:45:12.749Z,70.40
2023-03-03T17:47:42.316Z,72.20
2023-03-03T17:50:12.146Z,72.80
2023-03-03T17:52:41.715Z,74.00
2023-03-03T17:55:30.628Z,73.80
2023-03-03T17:58:15.825Z,73.90
2023-03-03T18:00:48.452Z,74.20
2023-03-03T18:03:35.794Z,78.20
2023-03-03T18:06:14.940Z,77.30
2023-03-03T18:09:13.608Z,79.20
2023-03-03T18:12:04.005Z,79.20
2023-03-03T18:14:42.197Z,77.20
2023-03-03T18:17:24.160Z,76.60
2023-03-03T18:20:23.057Z,78.70
2023-03-03T18:22:51.551Z,79.80
2023-03-03T18:25:42.567Z,82.10
2023-03-03T18:28:10.088Z,82.70
2023-03-03T18:30:59.764Z,84.10
2023-03-03T18:34:00.131Z,85.10
2023-03-03T18:36:27.149Z,89.40
2023-03-03T18:38:54.622Z,88.40
2023-03-03T18:41:30.823Z,90.30
2023-03-03T18:44:04.645Z,89.10
2023-03-03T18:46:31.663Z,89.00
2023-03-03T18:49:06.524Z,90.80
2023-03-03T18:51:39.238Z,92.40
2023-03-03T18:54:31.323Z,95.00
2023-03-03T18:56:58.413Z,94.70
2023-03-03T18:59:31.309Z,94.80
2023-03-03T19:02:13.193Z,95.20
2023-03-03T19:04:55.467Z,95.60
2023-03-03T19:07:43.342Z,98.60
2023-03-03T19:10:22.507Z,99.40
2023-03-03T19:12:57.872Z,97.20
2023-03-03T19:15:35.679Z,96.00
2023-03-03T19:18:17.099Z,97.40
2023-03-03T19:21:05.440Z,97.90
2023-03-03T19:23:32.286Z,98.70
2023-03-03T19:26:29.645Z,97.40
2023-03-03T19:29:20.654Z,97.20
2023-03-03T19:31:56.120Z,96.80
2023-03-03T19:34:41.567Z,96.70
2023-03-03T19:37:52.443Z,98.60
2023-03-03T19:40:51.067Z,97.60
2023-03-03T19:43:36.502Z,97.50
2023-03-03T19:46:20.922Z,97.50
2023-03-03T19:48:48.594Z,99.90
2023-03-03T19:51:25.565Z,99.50
2023-03-03T19:54:07.523Z,98.20
2023-03-03T19:56:40.950Z,98.00
2023-03-03T19:59:10.852Z,97.80
2023-03-03T20:01:42.211Z,99.70
2023-03-03T20:04:28.644Z,99.80
2023-03-03T20:07:12.765Z,99.60
2023-03-03T20:09:45.279Z,99.90
2023-03-03T20:12:23.151Z,99.90
2023-03-03T20:15:03.249Z,99.90
2023-03-03T20:17:33.104Z,99.90
2023-03-03T20:20:26.217Z,99.90
2023-03-03T20:23:12.498Z,99.90
2023-03-03T20:26:11.724Z,99.90
2023-03-03T20:29:06.193Z,99.90
2023-03-03T20:32:03.543Z,99.90
2023-03-03T20:34:41.527Z,99.90
2023-03-03T20:37:45.204Z,99.90
2023-03-03T20:40:53.392Z,99.90
2023-03-03T20:43:45.448Z,99.90
2023-03-03T20:46:29.228Z,99.90
2023-03-03T20:49:08.042Z,99.90
2023-03-03T20:51:49.543Z,99.90
2023-03-03T20:54:21.959Z,99.90
2023-03-03T20:57:29.023Z,99.90
2023-03-03T21:00:04.697Z,99.90
2023-03-03T21:03:01.232Z,99.90
2023-03-03T21:05:29.247Z,99.90
2023-03-03T21:08:21.870Z,99.90
2023-03-03T21:10:57.833Z,99.90
2023-03-03T21:13:37.339Z,99.90
2023-03-03T21:16:12.306Z,99.90
2023-03-03T21:18:39.727Z,99.90
2023-03-03T21:21:08.210Z,99.90
2023-03-03T21:23:36.360Z,99.90
2023-03-03T21:26:03.342Z,99.90
2023-03-03T21:28:33.672Z,99.90
2023-03-03T21:31:16.051Z,99.90
2023-03-03T21:33:58.265Z,99.90
2023-03-03T21:36:46.336Z,99.90
2023-03-03T21:39:46.225Z,99.90
2023-03-03T21:42:19.309Z,99.90
2023-03-03T21:44:50.446Z,99.90
2023-03-03T21:47:28.212Z,99.90
2023-03-03T21:49:55.073Z,99.90
2023-03-03T21:52:22.778Z,99.90
2023-03-03T21:54:51.176Z,99.90
2023-03-03T21:57:18.769Z,99.90
2023-03-03T21:59:45.710Z,99.90
2023-03-03T22:02:12.608Z,99.90
2023-03-03T22:04:39.565Z,99.90
2023-03-03T22:07:06.863Z,99.90
2023-03-03T22:09:34.586Z,99.90
2023-03-03T22:12:01.401Z,99.90
2023-03-03T22:14:28.376Z,99.90
2023-03-03T22:16:55.148Z,99.90
2023-03-03T22:19:21.834Z,99.90
2023-03-03T22:21:49.682Z,99.90
2023-03-03T22:24:16.671Z,99.90
2023-03-03T22:26:43.554Z,99.90
2023-03-03T22:29:10.459Z,99.90
2023-03-03T22:31:37.344Z,99.90
2023-03-03T22:34:04.699Z,99.90
2023-03-03T22:36:31.385Z,99.90
2023-03-03T22:38:58.197Z,99.90
2023-03-03T22:41:24.885Z,99.90
2023-03-03T22:43:51.622Z,99.90
2023-03-03T22:46:18.463Z,99.90
2023-03-03T22:48:45.200Z,99.90
2023-03-03T22:51:12.317Z,99.90
2023-03-03T22:53:39.024Z,99.90
2023-03-03T22:56:05.826Z,99.90
2023-03-03T22:58:32.568Z,99.90
2023-03-03T23:00:59.359Z,99.90
2023-03-03T23:03:26.169Z,99.90
2023-03-03T23:05:53.089Z,99.90
2023-03-03T23:08:20.532Z,99.90
2023-03-03T23:10:48.339Z,99.90
2023-03-03T23:13:15.520Z,99.90
2023-03-03T23:15:42.557Z,99.90
2023-03-03T23:18:09.527Z,99.90
2023-03-03T23:20:36.397Z,99.90
2023-03-03T23:23:03.650Z,99.90
2023-03-03T23:25:30.432Z,99.90
2023-03-03T23:27:57.383Z,99.90
2023-03-03T23:30:24.494Z,99.90
2023-03-03T23:32:51.727Z,99.90
2023-03-03T23:35:18.778Z,99.90
2023-03-03T23:37:46.143Z,99.90
2023-03-03T23:40:13.527Z,99.90
2023-03-03T23:42:40.594Z,99.90
2023-03-03T23:45:07.743Z,99.90
2023-03-03T23:47:34.430Z,99.90
2023-03-03T23:50:01.081Z,99.90
2023-03-03T23:52:27.796Z,99.90
2023-03-03T23:54:54.552Z,99.90
2023-03-03T23:57:21.238Z,99.90
2023-03-03T23:59:48.378Z,99.90
